Domov               UVHVVR             MKGP            O straneh              
ZDRAVSTVENO VARSTVO RASTLIN
  MREŽA AGROMET. POSTAJ
 ► PROGNOSTIČNA OBVESTILA
AGROMETEOROLOŠKI PODATKI -
ARSO
OBVLADOVANJE TVEGANJ ZARADI
NEUGODNIH VREMENSKIH RAZMER
  ► NARAVNE NESREČE
  ► SUŠA/MOČA
  ► NAMAKANJE
  ► ŽLED (gozdarstvo)
KARTOGRAFSKI PRIKAZI
SPLETNE POVEZAVE
PROJEKTI IN PUBLIKACIJE

AGROMETEOROLOŠKA MREŽA: VREMENSKE POSTAJE IN FENOLOŠKA OPAZOVANJA

Pregled podatkov za lokacijo Sremič, meteorološka postaja 49592

Pregled senzorjev na lokaciji

ID Ime Zadnja
vrednost
Datum
zadnje
spremembe
Tip
senzorja
3947 Omočenost lista (U) 0 U 25.3.2019 01:30 A730WET
3948 Padavine (mm) 0 mm 25.3.2019 01:30 Generic 0.2 mm
3945 Relativna vlaga 2 m (% RH) 37,22 % RH 25.3.2019 01:30 Generic 0 - 100 %
3946 Temperatura 2 m (°C) 13,01 °C 25.3.2019 01:30 Generic -40 - +60 °C

Pregled podatkov zadnjih 24 ur

Zap.
št.
Datum in čas Sremič
Omočenost
lista
Padavine Relativna
vlaga
2
m
Temperatura
2
m
1 25.3.2019 01:00
2 25.3.2019 00:30 0 0 37,2 13
3 25.3.2019 00:00 0 0 41,6 12,9
4 24.3.2019 23:30 0 0 35,7 14
5 24.3.2019 23:00 0 0 39 14
6 24.3.2019 22:30 0 0 37,7 14,2
7 24.3.2019 22:00 0 0 34,4 15,1
8 24.3.2019 21:30 0 0 33,2 15,6
9 24.3.2019 21:00 0 0 32,9 15,6
10 24.3.2019 20:30 0 0 32,8 15,8
11 24.3.2019 20:00 0 0 33 15,8
12 24.3.2019 19:30 0 0 32,5 15,9
13 24.3.2019 19:00 0 0 31,3 16,3
14 24.3.2019 18:30 0 0 30,7 16,6
15 24.3.2019 18:00 0 0 31,3 17,1
16 24.3.2019 17:30 0 0 31,7 17,6
17 24.3.2019 17:00 0 0 32,3 18
18 24.3.2019 16:30 0 0 32,4 18,3
19 24.3.2019 16:00 0 0 32,5 18,4
20 24.3.2019 15:30 0 0 33,4 18,6
21 24.3.2019 15:00 0 0 31,7 18,7
22 24.3.2019 14:30 0 0 33,2 18,6
23 24.3.2019 14:00 0 0 32,9 18,2
24 24.3.2019 13:30 0 0 33 18,3
25 24.3.2019 13:00 0 0 33 18,3
26 24.3.2019 12:30 0 0 35,8 17,7
27 24.3.2019 12:00 0 0 40,5 16,9
28 24.3.2019 11:30 0 0 43,6 16,7
29 24.3.2019 11:00 0 0 39,1 16,5
30 24.3.2019 10:30 0 0 43,5 15,5
31 24.3.2019 10:00 0 0 46,1 15,2
32 24.3.2019 09:30 0 0 44,1 14,3
33 24.3.2019 09:00 0 0 49,9 11,4
34 24.3.2019 08:30 0 0 56,4 9
35 24.3.2019 08:00 0 0 61,5 7,7
36 24.3.2019 07:30 0 0 56,9 8,6
37 24.3.2019 07:00 1 0 58,1 8,3
38 24.3.2019 06:30 1 0 57,3 8,4
39 24.3.2019 06:00 1 0 56,7 8,5
40 24.3.2019 05:30 1 0 55 8,9
41 24.3.2019 05:00 0 0 51,3 9,7
42 24.3.2019 04:30 0 0 53,6 9,2
43 24.3.2019 04:00 1 0 51,3 9,7
44 24.3.2019 03:30 0 0 45 11
45 24.3.2019 03:00 0 0 43,8 11,4
46 24.3.2019 02:30 0 0 43,8 11,3
47 24.3.2019 02:00 0 0 41,5 12,1
48 24.3.2019 01:30 0 0 42 12
© 2011 Ministrstvo za kmetijstvo, gozdarstvo in prehrano. Vse pravice pridržane.